Racecast

Matthew Lezon

Temperance Bedford (MI) · 12 · SECMI D1MONROE · Compare head to head

Athlete rating 111.8 2015 TF season
Best race 131.5 XC
Races 36
Seasons 5 2011 — 2015

RankedNation #39745·MI #1946·MI D1 #15299·SEC #499·Team #14 ?

Cross Country

2014 XC 126.4

Temperance Bedford (MI) · Grade 12

Date Meet Event Result Place Rating Difficulty PR/SR Flags
2014-11-01 Michigan International Speedway (MIS) 5000m 17:31.9 225th · 5th on team 128.8 +0.057 ★CR CSR
2014-10-25 Lake Erie Metro Park OFFICIAL 5000m 17:33.6 32nd · 5th on team 131.5 +0.084 ★CR ★R CSR RSR
2014-10-04 Portage West MS 5000m 17:26 145th · 5th on team 129.3 +0.066 ★PR ★CR SR CSR
2014-09-23 Huron Meadows Metropark OFFICIAL 5000m 17:45.2 27th · 4th on team 130.5 +0.081 PR ★CR R SR CSR RSR
2014-09-20 Ella Sharp Park OFFICIAL 5000m 17:50.9 88th · 4th on team 126.7 +0.066 PR ★CR SR CSR
2014-09-09 Hudson Mills Metropark - OFFICIAL 5000m 18:10.6 39th · 3rd on team 124.8 +0.065 CSR
2014-09-06 Hedges Boyer Park 5000m 17:58.6 211th · 4th on team 111.8 -0.046 ★CR SR CSR
2014-08-28 Heritage Park (Adrian) OFFICIAL 5000m 18:19.3 11th · 3rd on team 127.5 +0.111 ★CR SR CSR RSR

2013 XC 122.8

Temperance Bedford (MI) · Grade 11

Date Meet Event Result Place Rating Difficulty PR/SR Flags
2013-10-26 Lake Erie Metro Park OFFICIAL 5000m 17:55 15th · 1st on team 129.3 +0.084 PR CR R SR CSR RSR
2013-10-17 Hudson Mills Metropark - OFFICIAL 5000m 18:00.6 31st · 6th on team 124.5 +0.065 PR ★CR SR CSR
2013-10-05 Portage West MS 5000m 18:02 167th · 5th on team 126.7 +0.066 PR CR R SR CSR RSR
2013-09-28 Pearson's Metro Park 5000m 18:07.7 65th · 7th on team 114.8 -0.026 PR ★CR SR CSR
2013-09-21 Ella Sharp Park OFFICIAL 5000m 18:09.9 120th · 6th on team 124.0 +0.066 PR CR SR CSR
2013-09-13 Forest Akers East Golf Course 5000m 18:11 170th · 6th on team 125.0 +0.085 PR ★CR SR CSR
2013-09-07 Hedges Boyer Park 5000m 18:22.6 206th · 6th on team 111.7 -0.046 PR CR SR CSR
2013-08-24 Island Lake Recreation Area OFFICIAL 5000m 18:40 6th · 6th on team 126.0 +0.096 ★CR R SR CSR RSR

2012 XC 117.1

Temperance Bedford (MI) · Grade 10

Date Meet Event Result Place Rating Difficulty PR/SR Flags
2012-10-18 Hudson Mills Metropark - OFFICIAL 5000m 18:51 50th · 4th on team 120.8 +0.065 CR CSR
2012-09-29 Pearson's Metro Park 5000m 18:32.7 74th · 7th on team 111.3 -0.026 CR CSR
2012-09-27 Munson Park 5000m 18:37.8 34th · 6th on team 122.4 +0.083 ★CR R CSR RSR
2012-09-22 Ella Sharp Park OFFICIAL 5000m 18:26.3 139th · 10th on team 121.3 +0.066 PR CR R SR CSR RSR
2012-09-11 Indian Creek OFFICIAL 5000m 19:37.4 73rd · 9th on team 115.9 +0.067 ★CR CSR
2012-09-08 Hedges Boyer Park 5000m 18:56.8 232nd · 7th on team 107.8 -0.046 PR CR SR CSR
2012-08-25 Island Lake Recreation Area OFFICIAL 5000m 19:30 44th · 6th on team 120.1 +0.096 PR CR R SR CSR RSR

2011 XC 113.5

Temperance Bedford (MI) · Grade 9

Date Meet Event Result Place Rating Difficulty PR/SR Flags
2011-10-20 Hudson Mills Metropark - OFFICIAL 5000m 20:04 95th · 11th on team 113.7 +0.065 CR CSR
2011-10-08 Portage West MS 5000m 20:44.3 231st · 11th on team 110.7 +0.066 CR CSR
2011-09-27 Mill Pond Park 5000m 20:40.4 49th · 9th on team 113.8 +0.106 ★CR CSR
2011-09-16 Forest Akers East Golf Course 5000m 19:59 259th · 12th on team 113.8 +0.085 PR CR SR CSR
2011-09-13 Willow Metropark OFFICIAL 5000m 20:00.8 50th · 8th on team 115.6 +0.076 PR ★CR R SR CSR RSR

Track & Field

2015 TF 110.5

Temperance Bedford (MI) · Grade 12

Date Meet Event Result Place Rating Difficulty PR/SR Flags
2015-05-15 MHSAA LP Regional 03-1 @ Saline 3200m 11:05.57 19th · 2nd on team 109.8 -0.042
2015-05-12 SEC: Bedford @ Huron 1600m 5:13.5 4th · 2nd on team 110.0 -0.034 ★PR SR
2015-05-07 SEC: Red Division Finals 800m 2:18.94 15th · 2nd on team 109.0 -0.032 ★PR SR
2015-05-07 SEC: Red Division Finals 3200m 10:58.34 19th · 2nd on team 113.0 -0.032 ★PR SR RSR
2015-05-05 SEC Dual: Bedford at Monroe 3200m 11:17 2nd · 2nd on team 108.8 -0.032
2015-04-28 SEC: Skyline @ Bedford 3200m 10:59 5th · 1st on team 112.1 -0.033 PR SR RSR
2015-04-25 Whitmore Lake HS Invite 3200m 11:09.1 6th · 2nd on team 110.6 -0.029 PR SR RSR

2013 TF 107.1

Temperance Bedford (MI) · Grade 10

Date Meet Event Result Place Rating Difficulty PR/SR Flags
2013-04-09 Bedford v. AA Huron 3200m 11:25.6 1st · 1st on team 107.1 -0.034 PR SR RSR